createdAt,value
2022-11-01T00:05:22.011Z,77.83
2022-11-01T00:15:25.297Z,77.90
2022-11-01T00:25:28.489Z,77.86
2022-11-01T00:35:33.156Z,77.98
2022-11-01T00:45:36.427Z,77.84
2022-11-01T00:55:39.775Z,77.93
2022-11-01T01:05:43.040Z,77.88
2022-11-01T01:15:46.635Z,77.89
2022-11-01T01:25:49.862Z,77.82
2022-11-01T01:35:52.985Z,77.86
2022-11-01T01:45:56.253Z,77.80
2022-11-01T01:55:59.528Z,77.78
2022-11-01T02:06:13.950Z,77.73
2022-11-01T02:16:35.519Z,77.72
2022-11-01T02:27:17.992Z,77.67
2022-11-01T02:37:24.172Z,77.75
2022-11-01T02:47:30.709Z,77.83
2022-11-01T02:57:37.725Z,77.92
2022-11-01T03:07:46.851Z,78.03
2022-11-01T03:17:54.341Z,78.01
2022-11-01T03:28:01.436Z,77.94
2022-11-01T03:38:10.986Z,78.11
2022-11-01T03:48:14.935Z,77.97
2022-11-01T03:58:18.152Z,78.04
2022-11-01T04:08:21.296Z,78.02
2022-11-01T04:18:43.773Z,78.10
2022-11-01T04:28:57.424Z,77.94
2022-11-01T04:39:01.071Z,77.96
2022-11-01T04:49:04.313Z,77.84
2022-11-01T04:59:07.605Z,77.79
2022-11-01T05:09:10.782Z,77.68
2022-11-01T05:19:13.949Z,77.80
2022-11-01T05:29:31.247Z,77.76
2022-11-01T05:39:35.585Z,77.84
2022-11-01T05:49:38.857Z,77.77
2022-11-01T05:59:42.092Z,77.96
2022-11-01T06:09:45.270Z,77.77
2022-11-01T06:19:48.458Z,77.72
2022-11-01T06:29:51.627Z,77.72
2022-11-01T06:39:54.869Z,77.74
2022-11-01T06:49:58.117Z,77.56
2022-11-01T07:00:01.269Z,77.55
2022-11-01T07:10:05.806Z,77.30
2022-11-01T07:20:10.180Z,77.02
2022-11-01T07:30:13.683Z,76.67
2022-11-01T07:40:18.082Z,76.30
2022-11-01T07:50:21.384Z,76.18
2022-11-01T08:00:24.781Z,75.74
2022-11-01T08:10:29.221Z,75.52
2022-11-01T08:20:32.648Z,75.10
2022-11-01T08:30:38.041Z,74.78
2022-11-01T08:40:41.263Z,74.41
2022-11-01T08:50:44.703Z,74.56
2022-11-01T09:00:47.995Z,74.42
2022-11-01T09:10:51.287Z,74.19
2022-11-01T09:20:57.710Z,73.80
2022-11-01T09:31:19.969Z,73.26
2022-11-01T09:41:34.759Z,72.56
2022-11-01T09:51:39.134Z,72.46
2022-11-01T10:01:51.708Z,72.27
2022-11-01T10:12:13.844Z,72.64
2022-11-01T10:22:19.681Z,72.82
2022-11-01T10:32:47.223Z,73.77
2022-11-01T10:42:50.566Z,74.11
2022-11-01T10:53:02.223Z,74.63
2022-11-01T11:03:24.161Z,74.49
2022-11-01T11:13:28.257Z,73.71
2022-11-01T11:23:34.851Z,72.35
2022-11-01T11:33:38.197Z,71.93
2022-11-01T11:43:46.252Z,71.46
2022-11-01T11:54:18.902Z,71.34
2022-11-01T12:04:23.989Z,70.92
2022-11-01T12:14:27.985Z,71.12
2022-11-01T12:24:39.487Z,70.94
2022-11-01T12:34:46.572Z,71.50
2022-11-01T12:44:57.047Z,71.84
2022-11-01T12:55:36.387Z,72.23
2022-11-01T13:06:20.100Z,72.53
2022-11-01T13:16:36.969Z,72.74
2022-11-01T13:27:07.329Z,73.23
2022-11-01T13:37:22.742Z,73.57
2022-11-01T13:57:55.499Z,73.56
2022-11-01T14:08:05.213Z,73.64
2022-11-01T14:18:10.483Z,73.91
2022-11-01T14:28:16.724Z,74.20
2022-11-01T14:38:32.657Z,74.21
2022-11-01T14:48:48.110Z,74.66
2022-11-01T14:58:51.860Z,74.78
2022-11-01T15:09:05.751Z,75.28
2022-11-01T15:19:18.640Z,75.71
2022-11-01T15:29:30.985Z,75.68
2022-11-01T15:39:38.267Z,75.74
2022-11-01T15:49:59.926Z,75.55
2022-11-01T16:00:23.457Z,75.50
2022-11-01T16:10:32.683Z,75.45
2022-11-01T16:20:41.157Z,75.46
2022-11-01T16:30:49.351Z,75.35
2022-11-01T16:40:58.478Z,75.17
2022-11-01T16:51:03.778Z,74.86
2022-11-01T17:01:19.258Z,74.77
2022-11-01T17:11:23.650Z,74.84
2022-11-01T17:21:31.169Z,75.03
2022-11-01T17:31:34.572Z,74.90
2022-11-01T17:41:38.340Z,74.95
2022-11-01T17:51:42.650Z,74.95
2022-11-01T18:01:46.002Z,74.75
2022-11-01T18:12:07.869Z,74.73
2022-11-01T18:22:26.378Z,74.65
2022-11-01T18:32:38.576Z,74.89
2022-11-01T18:42:42.435Z,74.89
2022-11-01T18:52:45.755Z,75.00
2022-11-01T19:02:49.609Z,75.29
2022-11-01T19:12:56.577Z,75.51
2022-11-01T19:23:02.941Z,76.26
2022-11-01T19:33:22.985Z,76.66
2022-11-01T19:43:28.088Z,77.13
2022-11-01T19:53:34.620Z,77.27
2022-11-01T20:04:30.328Z,77.51
2022-11-01T20:14:35.688Z,77.68
2022-11-01T20:24:39.106Z,77.68
2022-11-01T20:34:43.272Z,77.81
2022-11-01T20:44:47.921Z,78.08
2022-11-01T20:54:52.817Z,78.33
2022-11-01T21:05:03.028Z,78.36
2022-11-01T21:15:39.364Z,78.48
2022-11-01T21:25:46.090Z,78.42
2022-11-01T21:35:51.944Z,78.21
2022-11-01T21:45:55.321Z,78.25
2022-11-01T21:55:58.504Z,78.23
2022-11-01T22:06:03.164Z,78.32
2022-11-01T22:16:08.605Z,78.15
2022-11-01T22:26:12.597Z,78.20
2022-11-01T22:36:30.285Z,78.29
2022-11-01T22:46:45.484Z,78.17
2022-11-01T22:57:10.786Z,78.23
2022-11-01T23:07:32.618Z,78.25
2022-11-01T23:17:37.357Z,78.34
2022-11-01T23:27:43.227Z,78.51
2022-11-01T23:37:48.159Z,78.42
2022-11-01T23:47:51.335Z,78.10
2022-11-01T23:57:56.796Z,77.93
